sensor_id;sensor_type;location;lat;lon;timestamp;P1;durP1;ratioP1;P2;durP2;ratioP2
16272;SDS011;8244;50.044;9.006;2023-06-19T00:02:47;9.75;;;6.55;;
16272;SDS011;8244;50.044;9.006;2023-06-19T00:07:50;8.38;;;6.30;;
16272;SDS011;8244;50.044;9.006;2023-06-19T00:12:51;8.60;;;6.65;;
16272;SDS011;8244;50.044;9.006;2023-06-19T00:17:53;7.90;;;5.90;;
16272;SDS011;8244;50.044;9.006;2023-06-19T00:22:56;8.68;;;6.45;;
16272;SDS011;8244;50.044;9.006;2023-06-19T00:27:58;10.65;;;6.53;;
16272;SDS011;8244;50.044;9.006;2023-06-19T00:32:59;8.73;;;6.22;;
16272;SDS011;8244;50.044;9.006;2023-06-19T00:38:04;9.77;;;6.45;;
16272;SDS011;8244;50.044;9.006;2023-06-19T00:43:06;7.30;;;5.95;;
16272;SDS011;8244;50.044;9.006;2023-06-19T00:48:08;8.68;;;6.20;;
16272;SDS011;8244;50.044;9.006;2023-06-19T00:53:11;9.77;;;5.75;;
16272;SDS011;8244;50.044;9.006;2023-06-19T00:58:13;8.77;;;6.88;;
16272;SDS011;8244;50.044;9.006;2023-06-19T01:03:16;11.40;;;7.03;;
16272;SDS011;8244;50.044;9.006;2023-06-19T01:08:22;12.40;;;7.03;;
16272;SDS011;8244;50.044;9.006;2023-06-19T01:13:37;10.77;;;6.82;;
16272;SDS011;8244;50.044;9.006;2023-06-19T01:18:43;8.80;;;6.53;;
16272;SDS011;8244;50.044;9.006;2023-06-19T01:23:46;10.50;;;7.40;;
16272;SDS011;8244;50.044;9.006;2023-06-19T01:28:48;10.27;;;6.60;;
16272;SDS011;8244;50.044;9.006;2023-06-19T01:33:50;8.68;;;6.63;;
16272;SDS011;8244;50.044;9.006;2023-06-19T01:38:56;8.50;;;6.53;;
16272;SDS011;8244;50.044;9.006;2023-06-19T01:43:59;7.95;;;6.43;;
16272;SDS011;8244;50.044;9.006;2023-06-19T01:49:01;9.30;;;7.00;;
16272;SDS011;8244;50.044;9.006;2023-06-19T01:54:09;10.18;;;7.35;;
16272;SDS011;8244;50.044;9.006;2023-06-19T01:59:10;11.00;;;6.97;;
16272;SDS011;8244;50.044;9.006;2023-06-19T02:04:12;9.93;;;7.53;;
16272;SDS011;8244;50.044;9.006;2023-06-19T02:09:15;10.90;;;7.30;;
16272;SDS011;8244;50.044;9.006;2023-06-19T02:14:17;10.25;;;7.97;;
16272;SDS011;8244;50.044;9.006;2023-06-19T02:19:19;12.02;;;8.27;;
16272;SDS011;8244;50.044;9.006;2023-06-19T02:24:22;11.23;;;8.23;;
16272;SDS011;8244;50.044;9.006;2023-06-19T02:29:23;12.88;;;8.38;;
16272;SDS011;8244;50.044;9.006;2023-06-19T02:34:25;11.25;;;8.98;;
16272;SDS011;8244;50.044;9.006;2023-06-19T02:39:28;12.38;;;8.40;;
16272;SDS011;8244;50.044;9.006;2023-06-19T02:44:30;11.50;;;8.63;;
16272;SDS011;8244;50.044;9.006;2023-06-19T02:49:32;11.32;;;7.75;;
16272;SDS011;8244;50.044;9.006;2023-06-19T02:54:35;10.88;;;8.02;;
16272;SDS011;8244;50.044;9.006;2023-06-19T02:59:36;10.38;;;8.05;;
16272;SDS011;8244;50.044;9.006;2023-06-19T03:04:39;9.80;;;7.90;;
16272;SDS011;8244;50.044;9.006;2023-06-19T03:09:42;12.10;;;7.97;;
16272;SDS011;8244;50.044;9.006;2023-06-19T03:14:44;10.55;;;8.32;;
16272;SDS011;8244;50.044;9.006;2023-06-19T03:19:45;10.73;;;8.57;;
16272;SDS011;8244;50.044;9.006;2023-06-19T03:24:48;12.48;;;8.23;;
16272;SDS011;8244;50.044;9.006;2023-06-19T03:29:50;11.30;;;7.85;;
16272;SDS011;8244;50.044;9.006;2023-06-19T03:34:52;11.27;;;8.48;;
16272;SDS011;8244;50.044;9.006;2023-06-19T03:39:55;12.15;;;7.90;;
16272;SDS011;8244;50.044;9.006;2023-06-19T03:44:57;12.18;;;8.00;;
16272;SDS011;8244;50.044;9.006;2023-06-19T03:49:58;10.50;;;7.63;;
16272;SDS011;8244;50.044;9.006;2023-06-19T03:55:01;11.35;;;7.93;;
16272;SDS011;8244;50.044;9.006;2023-06-19T04:00:03;9.52;;;7.28;;
16272;SDS011;8244;50.044;9.006;2023-06-19T04:05:07;11.45;;;7.70;;
16272;SDS011;8244;50.044;9.006;2023-06-19T04:10:10;10.80;;;7.70;;
16272;SDS011;8244;50.044;9.006;2023-06-19T04:15:12;10.40;;;8.20;;
16272;SDS011;8244;50.044;9.006;2023-06-19T04:20:14;10.70;;;7.15;;
16272;SDS011;8244;50.044;9.006;2023-06-19T04:25:17;11.60;;;7.90;;
16272;SDS011;8244;50.044;9.006;2023-06-19T04:30:19;11.88;;;7.28;;
16272;SDS011;8244;50.044;9.006;2023-06-19T04:35:21;10.23;;;6.95;;
16272;SDS011;8244;50.044;9.006;2023-06-19T04:40:25;9.20;;;6.70;;
16272;SDS011;8244;50.044;9.006;2023-06-19T04:45:26;8.98;;;6.10;;
16272;SDS011;8244;50.044;9.006;2023-06-19T04:50:28;7.57;;;5.95;;
16272;SDS011;8244;50.044;9.006;2023-06-19T04:55:31;8.48;;;6.55;;
16272;SDS011;8244;50.044;9.006;2023-06-19T05:00:33;9.10;;;6.75;;
16272;SDS011;8244;50.044;9.006;2023-06-19T05:05:35;9.52;;;6.57;;
16272;SDS011;8244;50.044;9.006;2023-06-19T05:10:38;10.68;;;6.68;;
16272;SDS011;8244;50.044;9.006;2023-06-19T05:15:40;6.05;;;5.13;;
16272;SDS011;8244;50.044;9.006;2023-06-19T05:20:41;8.32;;;4.80;;
16272;SDS011;8244;50.044;9.006;2023-06-19T05:25:44;6.93;;;4.78;;
16272;SDS011;8244;50.044;9.006;2023-06-19T05:30:46;7.75;;;5.00;;
16272;SDS011;8244;50.044;9.006;2023-06-19T05:35:50;5.75;;;4.60;;
16272;SDS011;8244;50.044;9.006;2023-06-19T05:40:55;6.15;;;4.30;;
16272;SDS011;8244;50.044;9.006;2023-06-19T05:45:57;7.75;;;3.67;;
16272;SDS011;8244;50.044;9.006;2023-06-19T05:50:59;7.15;;;3.92;;
16272;SDS011;8244;50.044;9.006;2023-06-19T05:56:03;4.90;;;3.53;;
16272;SDS011;8244;50.044;9.006;2023-06-19T06:01:05;5.25;;;4.15;;
16272;SDS011;8244;50.044;9.006;2023-06-19T06:06:07;6.18;;;3.58;;
16272;SDS011;8244;50.044;9.006;2023-06-19T06:11:11;8.07;;;3.75;;
16272;SDS011;8244;50.044;9.006;2023-06-19T06:16:12;5.07;;;3.78;;
16272;SDS011;8244;50.044;9.006;2023-06-19T06:21:14;6.03;;;3.78;;
16272;SDS011;8244;50.044;9.006;2023-06-19T06:26:17;5.85;;;3.67;;
16272;SDS011;8244;50.044;9.006;2023-06-19T06:31:19;5.20;;;3.58;;
16272;SDS011;8244;50.044;9.006;2023-06-19T06:36:20;8.75;;;4.00;;
16272;SDS011;8244;50.044;9.006;2023-06-19T06:41:23;6.20;;;3.50;;
16272;SDS011;8244;50.044;9.006;2023-06-19T06:46:25;7.85;;;3.97;;
16272;SDS011;8244;50.044;9.006;2023-06-19T06:51:27;7.00;;;4.00;;
16272;SDS011;8244;50.044;9.006;2023-06-19T06:56:30;6.70;;;4.63;;
16272;SDS011;8244;50.044;9.006;2023-06-19T07:01:31;5.80;;;4.47;;
16272;SDS011;8244;50.044;9.006;2023-06-19T07:06:33;6.40;;;4.68;;
16272;SDS011;8244;50.044;9.006;2023-06-19T07:11:36;8.40;;;3.70;;
16272;SDS011;8244;50.044;9.006;2023-06-19T07:16:38;7.85;;;3.55;;
16272;SDS011;8244;50.044;9.006;2023-06-19T07:21:39;4.82;;;3.50;;
16272;SDS011;8244;50.044;9.006;2023-06-19T07:26:44;3.88;;;2.95;;
16272;SDS011;8244;50.044;9.006;2023-06-19T07:31:47;5.88;;;3.17;;
16272;SDS011;8244;50.044;9.006;2023-06-19T07:36:48;4.30;;;3.47;;
16272;SDS011;8244;50.044;9.006;2023-06-19T07:41:51;5.15;;;3.22;;
16272;SDS011;8244;50.044;9.006;2023-06-19T07:46:53;5.03;;;3.20;;
16272;SDS011;8244;50.044;9.006;2023-06-19T07:51:55;4.20;;;3.22;;
16272;SDS011;8244;50.044;9.006;2023-06-19T07:56:58;6.05;;;4.10;;
16272;SDS011;8244;50.044;9.006;2023-06-19T08:01:59;3.80;;;2.90;;
16272;SDS011;8244;50.044;9.006;2023-06-19T08:07:01;4.00;;;2.90;;
16272;SDS011;8244;50.044;9.006;2023-06-19T08:12:05;3.67;;;2.60;;
16272;SDS011;8244;50.044;9.006;2023-06-19T08:17:07;3.40;;;2.65;;
16272;SDS011;8244;50.044;9.006;2023-06-19T08:22:09;5.53;;;3.13;;
16272;SDS011;8244;50.044;9.006;2023-06-19T08:27:12;6.82;;;3.13;;
16272;SDS011;8244;50.044;9.006;2023-06-19T08:32:14;4.22;;;2.80;;
16272;SDS011;8244;50.044;9.006;2023-06-19T08:37:16;3.13;;;2.83;;
16272;SDS011;8244;50.044;9.006;2023-06-19T08:42:20;3.55;;;2.88;;
16272;SDS011;8244;50.044;9.006;2023-06-19T08:47:21;6.45;;;3.05;;
16272;SDS011;8244;50.044;9.006;2023-06-19T08:52:23;6.13;;;3.70;;
16272;SDS011;8244;50.044;9.006;2023-06-19T08:57:34;6.75;;;3.22;;
16272;SDS011;8244;50.044;9.006;2023-06-19T09:02:36;3.90;;;3.28;;
16272;SDS011;8244;50.044;9.006;2023-06-19T09:07:40;4.68;;;3.00;;
16272;SDS011;8244;50.044;9.006;2023-06-19T09:12:43;5.65;;;3.38;;
16272;SDS011;8244;50.044;9.006;2023-06-19T09:17:45;4.75;;;3.17;;
16272;SDS011;8244;50.044;9.006;2023-06-19T09:22:47;4.15;;;3.08;;
16272;SDS011;8244;50.044;9.006;2023-06-19T09:27:50;4.65;;;3.20;;
16272;SDS011;8244;50.044;9.006;2023-06-19T09:32:52;6.65;;;3.28;;
16272;SDS011;8244;50.044;9.006;2023-06-19T09:37:54;4.88;;;3.22;;
16272;SDS011;8244;50.044;9.006;2023-06-19T09:42:57;4.32;;;3.58;;
16272;SDS011;8244;50.044;9.006;2023-06-19T09:48:00;5.78;;;3.30;;
16272;SDS011;8244;50.044;9.006;2023-06-19T09:53:02;6.93;;;3.30;;
16272;SDS011;8244;50.044;9.006;2023-06-19T09:58:06;5.63;;;3.15;;
16272;SDS011;8244;50.044;9.006;2023-06-19T10:03:11;4.03;;;3.38;;
16272;SDS011;8244;50.044;9.006;2023-06-19T10:08:13;6.65;;;3.20;;
16272;SDS011;8244;50.044;9.006;2023-06-19T10:13:16;4.20;;;3.42;;
16272;SDS011;8244;50.044;9.006;2023-06-19T10:18:18;4.05;;;3.10;;
16272;SDS011;8244;50.044;9.006;2023-06-19T10:23:21;11.45;;;7.25;;
16272;SDS011;8244;50.044;9.006;2023-06-19T10:28:26;6.15;;;3.67;;
16272;SDS011;8244;50.044;9.006;2023-06-19T10:33:30;5.32;;;3.40;;
16272;SDS011;8244;50.044;9.006;2023-06-19T10:38:32;5.00;;;3.30;;
16272;SDS011;8244;50.044;9.006;2023-06-19T10:43:36;4.65;;;3.20;;
16272;SDS011;8244;50.044;9.006;2023-06-19T10:48:38;4.20;;;3.20;;
16272;SDS011;8244;50.044;9.006;2023-06-19T10:53:39;4.15;;;3.75;;
16272;SDS011;8244;50.044;9.006;2023-06-19T10:58:42;9.00;;;6.68;;
16272;SDS011;8244;50.044;9.006;2023-06-19T11:03:45;5.00;;;4.05;;
16272;SDS011;8244;50.044;9.006;2023-06-19T11:08:50;9.10;;;3.72;;
16272;SDS011;8244;50.044;9.006;2023-06-19T11:13:54;6.00;;;3.78;;
16272;SDS011;8244;50.044;9.006;2023-06-19T11:18:56;7.00;;;3.40;;
16272;SDS011;8244;50.044;9.006;2023-06-19T11:23:58;10.02;;;6.38;;
16272;SDS011;8244;50.044;9.006;2023-06-19T11:29:01;4.28;;;3.63;;
16272;SDS011;8244;50.044;9.006;2023-06-19T11:34:04;8.93;;;6.93;;
16272;SDS011;8244;50.044;9.006;2023-06-19T11:39:08;3.63;;;3.22;;
16272;SDS011;8244;50.044;9.006;2023-06-19T11:44:12;6.30;;;3.42;;
16272;SDS011;8244;50.044;9.006;2023-06-19T11:49:16;6.05;;;3.20;;
16272;SDS011;8244;50.044;9.006;2023-06-19T11:54:19;5.28;;;3.30;;
16272;SDS011;8244;50.044;9.006;2023-06-19T11:59:22;7.75;;;4.88;;
16272;SDS011;8244;50.044;9.006;2023-06-19T12:04:25;4.45;;;3.20;;
16272;SDS011;8244;50.044;9.006;2023-06-19T12:09:27;4.80;;;3.03;;
16272;SDS011;8244;50.044;9.006;2023-06-19T12:14:30;6.70;;;3.50;;
16272;SDS011;8244;50.044;9.006;2023-06-19T12:19:31;4.35;;;3.00;;
16272;SDS011;8244;50.044;9.006;2023-06-19T12:24:33;3.40;;;2.78;;
16272;SDS011;8244;50.044;9.006;2023-06-19T12:29:36;4.45;;;3.40;;
16272;SDS011;8244;50.044;9.006;2023-06-19T12:34:37;3.80;;;3.13;;
16272;SDS011;8244;50.044;9.006;2023-06-19T12:39:40;5.70;;;3.42;;
16272;SDS011;8244;50.044;9.006;2023-06-19T12:44:43;3.55;;;3.22;;
16272;SDS011;8244;50.044;9.006;2023-06-19T12:49:45;4.50;;;3.38;;
16272;SDS011;8244;50.044;9.006;2023-06-19T12:54:47;3.60;;;3.00;;
16272;SDS011;8244;50.044;9.006;2023-06-19T12:59:50;5.10;;;3.15;;
16272;SDS011;8244;50.044;9.006;2023-06-19T13:04:52;3.67;;;2.80;;
16272;SDS011;8244;50.044;9.006;2023-06-19T13:09:54;5.57;;;3.25;;
16272;SDS011;8244;50.044;9.006;2023-06-19T13:14:57;4.13;;;2.88;;
16272;SDS011;8244;50.044;9.006;2023-06-19T13:19:58;4.85;;;2.78;;
16272;SDS011;8244;50.044;9.006;2023-06-19T13:25:00;8.43;;;2.70;;
16272;SDS011;8244;50.044;9.006;2023-06-19T13:30:04;3.83;;;2.80;;
16272;SDS011;8244;50.044;9.006;2023-06-19T13:35:08;6.85;;;3.10;;
16272;SDS011;8244;50.044;9.006;2023-06-19T13:40:10;3.47;;;2.65;;
16272;SDS011;8244;50.044;9.006;2023-06-19T13:45:13;3.50;;;2.92;;
16272;SDS011;8244;50.044;9.006;2023-06-19T13:50:15;4.40;;;2.63;;
16272;SDS011;8244;50.044;9.006;2023-06-19T13:55:18;5.15;;;3.10;;
16272;SDS011;8244;50.044;9.006;2023-06-19T14:00:22;6.00;;;3.10;;
16272;SDS011;8244;50.044;9.006;2023-06-19T14:05:24;3.85;;;2.88;;
16272;SDS011;8244;50.044;9.006;2023-06-19T14:10:26;3.88;;;3.13;;
16272;SDS011;8244;50.044;9.006;2023-06-19T14:15:29;4.18;;;3.22;;
16272;SDS011;8244;50.044;9.006;2023-06-19T14:20:31;7.63;;;2.80;;
16272;SDS011;8244;50.044;9.006;2023-06-19T14:25:33;4.40;;;3.15;;
16272;SDS011;8244;50.044;9.006;2023-06-19T14:30:37;3.72;;;2.92;;
16272;SDS011;8244;50.044;9.006;2023-06-19T14:35:38;5.05;;;3.00;;
16272;SDS011;8244;50.044;9.006;2023-06-19T14:40:40;7.20;;;3.05;;
16272;SDS011;8244;50.044;9.006;2023-06-19T14:45:44;6.53;;;2.85;;
16272;SDS011;8244;50.044;9.006;2023-06-19T14:50:45;3.25;;;2.90;;
16272;SDS011;8244;50.044;9.006;2023-06-19T14:55:47;5.80;;;3.10;;
16272;SDS011;8244;50.044;9.006;2023-06-19T15:00:50;6.93;;;3.10;;
16272;SDS011;8244;50.044;9.006;2023-06-19T15:05:52;3.58;;;3.08;;
16272;SDS011;8244;50.044;9.006;2023-06-19T15:10:54;4.25;;;3.03;;
16272;SDS011;8244;50.044;9.006;2023-06-19T15:15:58;4.95;;;3.20;;
16272;SDS011;8244;50.044;9.006;2023-06-19T15:21:00;6.32;;;3.42;;
16272;SDS011;8244;50.044;9.006;2023-06-19T15:26:03;6.70;;;3.70;;
16272;SDS011;8244;50.044;9.006;2023-06-19T15:31:08;4.53;;;3.10;;
16272;SDS011;8244;50.044;9.006;2023-06-19T15:36:09;5.43;;;2.78;;
16272;SDS011;8244;50.044;9.006;2023-06-19T15:41:11;4.22;;;2.95;;
16272;SDS011;8244;50.044;9.006;2023-06-19T15:46:14;5.05;;;3.05;;
16272;SDS011;8244;50.044;9.006;2023-06-19T15:51:16;4.60;;;2.75;;
16272;SDS011;8244;50.044;9.006;2023-06-19T15:56:18;4.90;;;3.00;;
16272;SDS011;8244;50.044;9.006;2023-06-19T16:01:21;3.95;;;3.20;;
16272;SDS011;8244;50.044;9.006;2023-06-19T16:06:23;4.13;;;2.70;;
16272;SDS011;8244;50.044;9.006;2023-06-19T16:11:25;4.50;;;3.05;;
16272;SDS011;8244;50.044;9.006;2023-06-19T16:16:28;3.92;;;3.00;;
16272;SDS011;8244;50.044;9.006;2023-06-19T16:21:30;5.57;;;3.13;;
16272;SDS011;8244;50.044;9.006;2023-06-19T16:26:32;5.72;;;2.58;;
16272;SDS011;8244;50.044;9.006;2023-06-19T16:31:35;4.05;;;2.78;;
16272;SDS011;8244;50.044;9.006;2023-06-19T16:36:37;3.83;;;3.05;;
16272;SDS011;8244;50.044;9.006;2023-06-19T16:41:39;5.60;;;3.13;;
16272;SDS011;8244;50.044;9.006;2023-06-19T16:46:42;6.30;;;3.25;;
16272;SDS011;8244;50.044;9.006;2023-06-19T16:51:46;4.55;;;3.10;;
16272;SDS011;8244;50.044;9.006;2023-06-19T16:56:48;3.03;;;2.67;;
16272;SDS011;8244;50.044;9.006;2023-06-19T17:01:51;4.03;;;2.72;;
16272;SDS011;8244;50.044;9.006;2023-06-19T17:06:53;6.10;;;2.97;;
16272;SDS011;8244;50.044;9.006;2023-06-19T17:11:54;3.70;;;2.80;;
16272;SDS011;8244;50.044;9.006;2023-06-19T17:16:57;3.70;;;3.00;;
16272;SDS011;8244;50.044;9.006;2023-06-19T17:21:59;3.38;;;2.70;;
16272;SDS011;8244;50.044;9.006;2023-06-19T17:27:01;3.42;;;2.90;;
16272;SDS011;8244;50.044;9.006;2023-06-19T17:32:05;5.07;;;2.70;;
16272;SDS011;8244;50.044;9.006;2023-06-19T17:37:08;3.90;;;3.08;;
16272;SDS011;8244;50.044;9.006;2023-06-19T17:42:10;3.10;;;2.80;;
16272;SDS011;8244;50.044;9.006;2023-06-19T17:47:13;2.97;;;2.65;;
16272;SDS011;8244;50.044;9.006;2023-06-19T17:52:15;3.90;;;2.83;;
16272;SDS011;8244;50.044;9.006;2023-06-19T17:57:17;4.28;;;2.80;;
16272;SDS011;8244;50.044;9.006;2023-06-19T18:02:20;4.38;;;2.95;;
16272;SDS011;8244;50.044;9.006;2023-06-19T18:07:22;4.45;;;3.25;;
16272;SDS011;8244;50.044;9.006;2023-06-19T18:12:23;10.38;;;3.03;;
16272;SDS011;8244;50.044;9.006;2023-06-19T18:17:26;4.82;;;3.25;;
16272;SDS011;8244;50.044;9.006;2023-06-19T18:22:28;3.95;;;2.85;;
16272;SDS011;8244;50.044;9.006;2023-06-19T18:27:30;3.30;;;2.65;;
16272;SDS011;8244;50.044;9.006;2023-06-19T18:32:33;2.97;;;2.67;;
16272;SDS011;8244;50.044;9.006;2023-06-19T18:37:35;3.75;;;2.88;;
16272;SDS011;8244;50.044;9.006;2023-06-19T18:42:37;3.53;;;2.88;;
16272;SDS011;8244;50.044;9.006;2023-06-19T18:47:41;4.50;;;2.85;;
16272;SDS011;8244;50.044;9.006;2023-06-19T18:52:42;5.30;;;3.10;;
16272;SDS011;8244;50.044;9.006;2023-06-19T18:57:44;6.00;;;3.38;;
16272;SDS011;8244;50.044;9.006;2023-06-19T19:02:49;5.53;;;3.85;;
16272;SDS011;8244;50.044;9.006;2023-06-19T19:07:52;5.88;;;3.38;;
16272;SDS011;8244;50.044;9.006;2023-06-19T19:12:53;4.97;;;3.53;;
16272;SDS011;8244;50.044;9.006;2023-06-19T19:17:56;6.13;;;3.42;;
16272;SDS011;8244;50.044;9.006;2023-06-19T19:22:58;5.25;;;3.20;;
16272;SDS011;8244;50.044;9.006;2023-06-19T19:28:00;6.07;;;3.45;;
16272;SDS011;8244;50.044;9.006;2023-06-19T19:33:03;5.78;;;3.65;;
16272;SDS011;8244;50.044;9.006;2023-06-19T19:38:05;4.50;;;3.22;;
16272;SDS011;8244;50.044;9.006;2023-06-19T19:43:07;4.35;;;3.50;;
16272;SDS011;8244;50.044;9.006;2023-06-19T19:48:10;5.15;;;3.50;;
16272;SDS011;8244;50.044;9.006;2023-06-19T19:53:11;5.00;;;3.80;;
16272;SDS011;8244;50.044;9.006;2023-06-19T19:58:13;6.95;;;3.67;;
16272;SDS011;8244;50.044;9.006;2023-06-19T20:03:18;6.30;;;3.50;;
16272;SDS011;8244;50.044;9.006;2023-06-19T20:08:19;5.05;;;3.78;;
16272;SDS011;8244;50.044;9.006;2023-06-19T20:13:21;5.05;;;3.60;;
16272;SDS011;8244;50.044;9.006;2023-06-19T20:18:24;4.47;;;3.50;;
16272;SDS011;8244;50.044;9.006;2023-06-19T20:23:26;7.30;;;3.60;;
16272;SDS011;8244;50.044;9.006;2023-06-19T20:28:27;4.60;;;3.58;;
16272;SDS011;8244;50.044;9.006;2023-06-19T20:33:30;6.40;;;4.18;;
16272;SDS011;8244;50.044;9.006;2023-06-19T20:38:32;7.68;;;4.30;;
16272;SDS011;8244;50.044;9.006;2023-06-19T20:43:34;6.22;;;4.30;;
16272;SDS011;8244;50.044;9.006;2023-06-19T20:48:37;5.63;;;4.28;;
16272;SDS011;8244;50.044;9.006;2023-06-19T20:53:39;5.82;;;4.30;;
16272;SDS011;8244;50.044;9.006;2023-06-19T20:58:41;6.50;;;4.50;;
16272;SDS011;8244;50.044;9.006;2023-06-19T21:03:44;5.65;;;3.88;;
16272;SDS011;8244;50.044;9.006;2023-06-19T21:08:49;7.97;;;3.83;;
16272;SDS011;8244;50.044;9.006;2023-06-19T21:13:51;7.03;;;4.28;;
16272;SDS011;8244;50.044;9.006;2023-06-19T21:18:54;9.18;;;4.03;;
16272;SDS011;8244;50.044;9.006;2023-06-19T21:23:56;5.10;;;4.18;;
16272;SDS011;8244;50.044;9.006;2023-06-19T21:28:57;5.97;;;4.30;;
16272;SDS011;8244;50.044;9.006;2023-06-19T21:34:00;6.15;;;3.85;;
16272;SDS011;8244;50.044;9.006;2023-06-19T21:39:02;4.85;;;4.20;;
16272;SDS011;8244;50.044;9.006;2023-06-19T21:44:04;7.78;;;4.40;;
16272;SDS011;8244;50.044;9.006;2023-06-19T21:49:07;5.53;;;4.15;;
16272;SDS011;8244;50.044;9.006;2023-06-19T21:54:09;5.10;;;3.80;;
16272;SDS011;8244;50.044;9.006;2023-06-19T21:59:10;8.07;;;4.43;;
16272;SDS011;8244;50.044;9.006;2023-06-19T22:04:13;5.88;;;4.47;;
16272;SDS011;8244;50.044;9.006;2023-06-19T22:09:15;6.68;;;4.70;;
16272;SDS011;8244;50.044;9.006;2023-06-19T22:14:17;7.93;;;4.35;;
16272;SDS011;8244;50.044;9.006;2023-06-19T22:19:20;7.30;;;4.57;;
16272;SDS011;8244;50.044;9.006;2023-06-19T22:24:25;5.53;;;4.57;;
16272;SDS011;8244;50.044;9.006;2023-06-19T22:29:26;5.97;;;4.60;;
16272;SDS011;8244;50.044;9.006;2023-06-19T22:34:29;6.55;;;4.57;;
16272;SDS011;8244;50.044;9.006;2023-06-19T22:39:31;6.68;;;4.88;;
16272;SDS011;8244;50.044;9.006;2023-06-19T22:44:33;6.97;;;4.80;;
16272;SDS011;8244;50.044;9.006;2023-06-19T22:49:36;6.47;;;4.90;;
16272;SDS011;8244;50.044;9.006;2023-06-19T22:54:37;6.20;;;4.90;;
16272;SDS011;8244;50.044;9.006;2023-06-19T22:59:39;6.82;;;4.30;;
16272;SDS011;8244;50.044;9.006;2023-06-19T23:04:42;6.63;;;4.97;;
16272;SDS011;8244;50.044;9.006;2023-06-19T23:09:44;5.65;;;4.85;;
16272;SDS011;8244;50.044;9.006;2023-06-19T23:14:45;7.85;;;5.00;;
16272;SDS011;8244;50.044;9.006;2023-06-19T23:19:48;5.80;;;4.57;;
16272;SDS011;8244;50.044;9.006;2023-06-19T23:24:50;8.90;;;5.05;;
16272;SDS011;8244;50.044;9.006;2023-06-19T23:29:53;6.32;;;4.95;;
16272;SDS011;8244;50.044;9.006;2023-06-19T23:34:56;6.68;;;4.75;;
16272;SDS011;8244;50.044;9.006;2023-06-19T23:39:57;5.93;;;4.65;;
16272;SDS011;8244;50.044;9.006;2023-06-19T23:44:59;6.03;;;4.97;;
16272;SDS011;8244;50.044;9.006;2023-06-19T23:50:02;8.73;;;5.68;;
16272;SDS011;8244;50.044;9.006;2023-06-19T23:55:04;7.38;;;5.13;;
